createdAt,value
2022-12-18T00:02:10.798Z,100.00
2022-12-18T00:04:37.368Z,100.00
2022-12-18T00:07:03.922Z,100.00
2022-12-18T00:09:31.019Z,100.00
2022-12-18T00:14:42.802Z,100.00
2022-12-18T00:17:09.223Z,100.00
2022-12-18T00:19:35.648Z,100.00
2022-12-18T00:22:02.071Z,100.00
2022-12-18T00:24:28.428Z,100.00
2022-12-18T00:26:54.818Z,100.00
2022-12-18T00:29:21.219Z,100.00
2022-12-18T00:31:47.642Z,100.00
2022-12-18T00:34:14.829Z,100.00
2022-12-18T00:36:41.956Z,100.00
2022-12-18T00:39:08.907Z,100.00
2022-12-18T00:41:54.069Z,100.00
2022-12-18T00:44:20.771Z,100.00
2022-12-18T00:46:48.430Z,100.00
2022-12-18T00:49:16.622Z,100.00
2022-12-18T00:51:43.201Z,100.00
2022-12-18T00:54:11.221Z,100.00
2022-12-18T00:56:48.026Z,100.00
2022-12-18T00:59:15.593Z,100.00
2022-12-18T01:01:42.426Z,100.00
2022-12-18T01:04:08.932Z,100.00
2022-12-18T01:06:35.498Z,100.00
2022-12-18T01:09:02.545Z,100.00
2022-12-18T01:11:29.022Z,100.00
2022-12-18T01:13:55.989Z,100.00
2022-12-18T01:16:23.183Z,100.00
2022-12-18T01:18:53.858Z,100.00
2022-12-18T01:21:20.874Z,100.00
2022-12-18T01:23:47.677Z,100.00
2022-12-18T01:26:16.652Z,100.00
2022-12-18T01:28:44.848Z,100.00
2022-12-18T01:31:24.468Z,100.00
2022-12-18T01:33:52.447Z,100.00
2022-12-18T01:36:26.380Z,100.00
2022-12-18T01:38:54.225Z,100.00
2022-12-18T01:41:24.077Z,100.00
2022-12-18T01:43:56.146Z,100.00
2022-12-18T01:46:27.331Z,100.00
2022-12-18T01:48:58.921Z,100.00
2022-12-18T01:51:27.802Z,100.00
2022-12-18T01:53:54.152Z,100.00
2022-12-18T01:56:22.386Z,100.00
2022-12-18T01:59:03.628Z,100.00
2022-12-18T02:01:31.774Z,100.00
2022-12-18T02:04:27.051Z,100.00
2022-12-18T02:07:04.821Z,100.00
2022-12-18T02:09:41.860Z,100.00
2022-12-18T02:12:22.132Z,100.00
2022-12-18T02:15:09.463Z,100.00
2022-12-18T02:17:53.227Z,100.00
2022-12-18T02:20:33.025Z,100.00
2022-12-18T02:23:12.366Z,100.00
2022-12-18T02:26:03.656Z,100.00
2022-12-18T02:28:35.641Z,100.00
2022-12-18T02:31:06.974Z,100.00
2022-12-18T02:33:37.047Z,100.00
2022-12-18T02:36:05.249Z,100.00
2022-12-18T02:38:33.289Z,100.00
2022-12-18T02:41:00.558Z,100.00
2022-12-18T02:43:26.982Z,100.00
2022-12-18T02:45:56.895Z,100.00
2022-12-18T02:48:34.737Z,100.00
2022-12-18T02:51:24.749Z,100.00
2022-12-18T02:54:06.350Z,100.00
2022-12-18T02:56:45.699Z,100.00
2022-12-18T02:59:23.021Z,100.00
2022-12-18T03:02:04.123Z,100.00
2022-12-18T03:04:43.556Z,100.00
2022-12-18T03:07:16.673Z,100.00
2022-12-18T03:09:47.487Z,100.00
2022-12-18T03:12:26.708Z,100.00
2022-12-18T03:15:02.786Z,100.00
2022-12-18T03:17:33.125Z,100.00
2022-12-18T03:20:04.891Z,100.00
2022-12-18T03:22:34.221Z,100.00
2022-12-18T03:25:03.721Z,100.00
2022-12-18T03:27:33.436Z,100.00
2022-12-18T03:30:09.811Z,100.00
2022-12-18T03:32:59.995Z,100.00
2022-12-18T03:35:32.330Z,100.00
2022-12-18T03:37:58.772Z,100.00
2022-12-18T03:40:36.126Z,100.00
2022-12-18T03:43:17.722Z,100.00
2022-12-18T03:45:54.178Z,100.00
2022-12-18T03:48:52.297Z,100.00
2022-12-18T03:51:33.018Z,100.00
2022-12-18T03:54:02.358Z,100.00
2022-12-18T03:56:32.906Z,100.00
2022-12-18T03:59:02.506Z,100.00
2022-12-18T04:01:36.189Z,100.00
2022-12-18T04:04:04.642Z,100.00
2022-12-18T04:06:36.053Z,100.00
2022-12-18T04:09:02.776Z,100.00
2022-12-18T04:11:29.189Z,100.00
2022-12-18T04:13:59.345Z,100.00
2022-12-18T04:16:29.491Z,100.00
2022-12-18T04:18:55.976Z,100.00
2022-12-18T04:21:23.646Z,100.00
2022-12-18T04:23:50.273Z,100.00
2022-12-18T04:26:16.649Z,100.00
2022-12-18T04:28:43.544Z,100.00
2022-12-18T04:31:10.209Z,100.00
2022-12-18T04:33:37.243Z,100.00
2022-12-18T04:36:04.497Z,100.00
2022-12-18T04:38:30.899Z,100.00
2022-12-18T04:40:57.314Z,100.00
2022-12-18T04:43:23.825Z,100.00
2022-12-18T04:45:50.328Z,100.00
2022-12-18T04:48:16.789Z,100.00
2022-12-18T04:50:43.261Z,100.00
2022-12-18T04:53:09.658Z,100.00
2022-12-18T04:55:36.461Z,100.00
2022-12-18T04:58:02.856Z,100.00
2022-12-18T05:00:29.261Z,100.00
2022-12-18T05:02:56.179Z,100.00
2022-12-18T05:05:22.645Z,100.00
2022-12-18T05:07:49.093Z,100.00
2022-12-18T05:10:15.751Z,100.00
2022-12-18T05:12:59.029Z,100.00
2022-12-18T05:15:31.805Z,100.00
2022-12-18T05:17:59.315Z,100.00
2022-12-18T05:20:26.481Z,100.00
2022-12-18T05:22:54.713Z,100.00
2022-12-18T05:25:21.769Z,100.00
2022-12-18T05:27:48.711Z,100.00
2022-12-18T05:30:16.304Z,100.00
2022-12-18T05:32:42.708Z,100.00
2022-12-18T05:35:10.830Z,100.00
2022-12-18T05:37:42.692Z,100.00
2022-12-18T05:40:11.007Z,100.00
2022-12-18T05:42:37.915Z,100.00
2022-12-18T05:45:05.989Z,100.00
2022-12-18T05:47:32.465Z,100.00
2022-12-18T05:49:59.010Z,100.00
2022-12-18T05:52:25.521Z,100.00
2022-12-18T05:54:51.892Z,100.00
2022-12-18T05:57:18.628Z,100.00
2022-12-18T05:59:44.990Z,100.00
2022-12-18T06:02:11.508Z,100.00
2022-12-18T06:04:38.113Z,100.00
2022-12-18T06:07:04.648Z,100.00
2022-12-18T06:09:31.230Z,100.00
2022-12-18T06:11:57.700Z,100.00
2022-12-18T06:14:24.096Z,100.00
2022-12-18T06:16:52.342Z,100.00
2022-12-18T06:19:18.753Z,100.00
2022-12-18T06:21:45.219Z,100.00
2022-12-18T06:24:11.650Z,100.00
2022-12-18T06:26:41.598Z,100.00
2022-12-18T06:29:08.191Z,100.00
2022-12-18T06:31:34.775Z,100.00
2022-12-18T06:34:04.684Z,100.00
2022-12-18T06:36:31.393Z,100.00
2022-12-18T06:38:58.431Z,100.00
2022-12-18T06:41:25.009Z,100.00
2022-12-18T06:43:53.551Z,100.00
2022-12-18T06:46:22.039Z,100.00
2022-12-18T06:48:50.903Z,100.00
2022-12-18T06:51:21.963Z,100.00
2022-12-18T06:53:48.449Z,100.00
2022-12-18T06:56:15.226Z,100.00
2022-12-18T06:58:41.875Z,100.00
2022-12-18T07:01:11.209Z,100.00
2022-12-18T07:03:39.473Z,100.00
2022-12-18T07:06:06.954Z,100.00
2022-12-18T07:08:34.754Z,100.00
2022-12-18T07:11:04.470Z,100.00
2022-12-18T07:13:30.883Z,100.00
2022-12-18T07:16:15.065Z,100.00
2022-12-18T07:18:43.809Z,100.00
2022-12-18T07:21:12.752Z,100.00
2022-12-18T07:23:39.645Z,100.00
2022-12-18T07:26:12.262Z,100.00
2022-12-18T07:28:40.971Z,100.00
2022-12-18T07:31:13.387Z,100.00
2022-12-18T07:33:40.374Z,100.00
2022-12-18T07:36:08.461Z,100.00
2022-12-18T07:38:36.334Z,100.00
2022-12-18T07:41:11.331Z,100.00
2022-12-18T07:43:38.840Z,100.00
2022-12-18T07:46:06.541Z,100.00
2022-12-18T07:48:33.214Z,100.00
2022-12-18T07:51:07.457Z,100.00
2022-12-18T07:53:34.790Z,100.00
2022-12-18T07:56:29.474Z,100.00
2022-12-18T07:58:57.411Z,100.00
2022-12-18T08:01:24.046Z,100.00
2022-12-18T08:03:51.595Z,100.00
2022-12-18T08:06:19.017Z,100.00
2022-12-18T08:08:45.378Z,100.00
2022-12-18T08:11:11.761Z,100.00
2022-12-18T08:13:38.416Z,100.00
2022-12-18T08:16:07.830Z,100.00
2022-12-18T08:18:35.901Z,100.00
2022-12-18T08:21:16.647Z,100.00
2022-12-18T08:23:43.938Z,100.00
2022-12-18T08:26:12.349Z,100.00
2022-12-18T08:28:38.872Z,100.00
2022-12-18T08:31:05.891Z,100.00
2022-12-18T08:33:33.558Z,100.00
2022-12-18T08:36:01.070Z,100.00
2022-12-18T08:38:27.641Z,100.00
2022-12-18T08:41:07.939Z,100.00
2022-12-18T08:43:53.536Z,100.00
2022-12-18T08:46:21.706Z,100.00
2022-12-18T08:48:48.520Z,100.00
2022-12-18T08:51:17.345Z,100.00
2022-12-18T08:53:45.463Z,100.00
2022-12-18T08:56:12.721Z,100.00
2022-12-18T08:58:39.231Z,100.00
2022-12-18T09:01:07.879Z,100.00
2022-12-18T09:03:34.355Z,100.00
2022-12-18T09:06:00.857Z,100.00
2022-12-18T09:08:27.564Z,100.00
2022-12-18T09:10:54.474Z,100.00
2022-12-18T09:13:21.344Z,100.00
2022-12-18T09:15:53.821Z,100.00
2022-12-18T09:18:22.243Z,100.00
2022-12-18T09:20:48.891Z,100.00
2022-12-18T09:23:15.590Z,100.00
2022-12-18T09:25:42.005Z,100.00
2022-12-18T09:28:16.823Z,100.00
2022-12-18T09:30:46.068Z,100.00
2022-12-18T09:33:12.508Z,100.00
2022-12-18T09:35:39.690Z,100.00
2022-12-18T09:38:07.422Z,100.00
2022-12-18T09:40:45.796Z,100.00
2022-12-18T09:43:23.226Z,100.00
2022-12-18T09:45:56.048Z,100.00
2022-12-18T09:48:34.009Z,100.00
2022-12-18T09:51:06.792Z,100.00
2022-12-18T09:53:39.378Z,100.00
2022-12-18T09:56:06.334Z,100.00
2022-12-18T09:58:41.323Z,100.00
2022-12-18T10:01:15.571Z,100.00
2022-12-18T10:03:41.984Z,100.00
2022-12-18T10:06:16.501Z,100.00
2022-12-18T10:09:19.979Z,100.00
2022-12-18T10:12:06.034Z,100.00
2022-12-18T10:14:41.611Z,100.00
2022-12-18T10:17:27.470Z,100.00
2022-12-18T10:20:00.435Z,99.93
2022-12-18T10:22:35.946Z,99.98
2022-12-18T10:25:17.608Z,99.12
2022-12-18T10:27:44.234Z,99.11
2022-12-18T10:30:17.071Z,98.64
2022-12-18T10:32:43.846Z,98.98
2022-12-18T10:35:20.606Z,98.59
2022-12-18T10:38:05.245Z,98.05
2022-12-18T10:40:31.883Z,98.30
2022-12-18T10:43:10.961Z,98.22
2022-12-18T10:45:37.333Z,98.04
2022-12-18T10:48:04.641Z,98.04
2022-12-18T10:51:09.254Z,98.30
2022-12-18T10:53:30.387Z,97.91
2022-12-18T10:56:03.350Z,97.71
2022-12-18T10:58:33.189Z,97.82
2022-12-18T11:01:14.705Z,96.98
2022-12-18T11:03:47.332Z,96.24
2022-12-18T11:06:16.327Z,96.10
2022-12-18T11:08:44.943Z,95.99
2022-12-18T11:11:24.881Z,95.70
2022-12-18T11:14:22.760Z,94.52
2022-12-18T11:17:24.312Z,94.51
2022-12-18T11:19:39.699Z,94.07
2022-12-18T11:22:23.739Z,94.24
2022-12-18T11:25:30.245Z,94.02
2022-12-18T11:28:09.252Z,93.65
2022-12-18T11:30:37.414Z,92.27
2022-12-18T11:33:22.990Z,92.38
2022-12-18T11:35:54.095Z,92.24
2022-12-18T11:38:31.259Z,92.50
2022-12-18T11:41:19.500Z,92.63
2022-12-18T11:44:03.001Z,92.65
2022-12-18T11:46:37.034Z,92.68
2022-12-18T11:49:19.343Z,92.29
2022-12-18T11:52:01.057Z,91.33
2022-12-18T11:54:27.456Z,91.05
2022-12-18T11:56:59.516Z,91.20
2022-12-18T11:59:45.207Z,90.92
2022-12-18T12:02:33.136Z,90.46
2022-12-18T12:05:21.842Z,90.82
2022-12-18T12:07:59.774Z,90.91
2022-12-18T12:10:50.738Z,91.09
2022-12-18T12:13:26.992Z,90.06
2022-12-18T12:16:04.834Z,90.37
2022-12-18T12:18:43.954Z,89.61
2022-12-18T12:21:39.169Z,90.18
2022-12-18T12:24:38.614Z,89.34
2022-12-18T12:27:35.891Z,89.53
2022-12-18T12:30:17.465Z,88.93
2022-12-18T12:33:09.873Z,88.71
2022-12-18T12:36:04.210Z,88.98
2022-12-18T12:38:52.392Z,88.64
2022-12-18T12:41:43.720Z,88.96
2022-12-18T12:44:19.497Z,88.50
2022-12-18T12:46:49.336Z,88.81
2022-12-18T12:49:19.680Z,88.76
2022-12-18T12:51:50.863Z,88.57
2022-12-18T12:54:22.410Z,88.10
2022-12-18T12:57:09.905Z,87.62
2022-12-18T12:59:59.135Z,87.38
2022-12-18T13:02:45.411Z,88.24
2022-12-18T13:05:32.127Z,88.29
2022-12-18T13:08:08.444Z,88.26
2022-12-18T13:10:41.474Z,88.32
2022-12-18T13:13:09.163Z,87.24
2022-12-18T13:15:44.283Z,87.06
2022-12-18T13:18:19.441Z,86.54
2022-12-18T13:20:55.326Z,86.62
2022-12-18T13:23:26.601Z,86.71
2022-12-18T13:26:28.123Z,86.52
2022-12-18T13:28:56.853Z,86.74
2022-12-18T13:31:41.779Z,86.42
2022-12-18T13:34:26.961Z,86.92
2022-12-18T13:36:56.733Z,86.56
2022-12-18T13:39:34.800Z,85.95
2022-12-18T13:42:08.625Z,85.81
2022-12-18T13:44:40.968Z,85.65
2022-12-18T13:47:29.609Z,85.54
2022-12-18T13:49:57.921Z,85.96
2022-12-18T13:52:34.540Z,85.78
2022-12-18T13:55:03.435Z,86.11
2022-12-18T13:57:36.548Z,86.17
2022-12-18T14:00:35.577Z,86.51
2022-12-18T14:03:02.262Z,86.40
2022-12-18T14:05:38.663Z,86.69
2022-12-18T14:08:11.299Z,86.66
2022-12-18T14:10:48.931Z,86.12
2022-12-18T14:13:29.905Z,86.20
2022-12-18T14:15:57.363Z,85.50
2022-12-18T14:18:44.554Z,85.17
2022-12-18T14:21:30.247Z,84.68
2022-12-18T14:24:07.287Z,84.20
2022-12-18T14:26:34.442Z,84.65
2022-12-18T14:29:18.507Z,84.38
2022-12-18T14:31:45.871Z,84.19
2022-12-18T14:34:18.316Z,84.12
2022-12-18T14:36:54.104Z,84.02
2022-12-18T14:39:20.474Z,83.79
2022-12-18T14:41:50.158Z,84.22
2022-12-18T14:44:16.800Z,83.90
2022-12-18T14:46:48.192Z,84.15
2022-12-18T14:49:32.735Z,83.03
2022-12-18T14:52:01.023Z,83.69
2022-12-18T14:54:30.096Z,83.76
2022-12-18T14:57:22.233Z,84.11
2022-12-18T14:59:48.824Z,83.89
2022-12-18T15:02:27.748Z,83.48
2022-12-18T15:05:06.138Z,84.16
2022-12-18T15:07:50.915Z,83.90
2022-12-18T15:10:25.591Z,84.44
2022-12-18T15:12:58.811Z,84.06
2022-12-18T15:15:34.766Z,83.89
2022-12-18T15:18:02.690Z,83.80
2022-12-18T15:20:33.108Z,82.99
2022-12-18T15:22:59.574Z,83.53
2022-12-18T15:25:37.792Z,83.11
2022-12-18T15:28:16.679Z,83.08
2022-12-18T15:31:07.286Z,83.50
2022-12-18T15:33:37.612Z,83.87
2022-12-18T15:36:09.369Z,83.73
2022-12-18T15:38:36.315Z,83.22
2022-12-18T15:41:03.399Z,83.45
2022-12-18T15:43:36.102Z,83.21
2022-12-18T15:46:07.886Z,83.88
2022-12-18T15:48:36.474Z,83.89
2022-12-18T15:51:02.965Z,83.80
2022-12-18T15:53:33.434Z,83.70
2022-12-18T15:56:18.991Z,83.55
2022-12-18T15:58:45.385Z,83.49
2022-12-18T16:01:12.599Z,83.12
2022-12-18T16:03:39.553Z,82.71
2022-12-18T16:06:06.537Z,82.83
2022-12-18T16:08:33.268Z,82.92
2022-12-18T16:11:00.892Z,82.22
2022-12-18T16:13:27.307Z,83.01
2022-12-18T16:15:53.922Z,82.56
2022-12-18T16:18:20.387Z,82.41
2022-12-18T16:20:46.857Z,82.55
2022-12-18T16:23:13.323Z,82.61
2022-12-18T16:25:39.942Z,83.16
2022-12-18T16:28:06.443Z,82.41
2022-12-18T16:30:38.181Z,82.26
2022-12-18T16:33:05.654Z,82.35
2022-12-18T16:35:33.982Z,82.63
2022-12-18T16:38:00.393Z,82.62
2022-12-18T16:40:26.903Z,82.85
2022-12-18T16:42:53.268Z,82.66
2022-12-18T16:45:19.737Z,82.27
2022-12-18T16:47:46.353Z,82.91
2022-12-18T16:50:13.051Z,82.30
2022-12-18T16:52:39.837Z,82.32
2022-12-18T16:55:06.876Z,82.39
2022-12-18T16:57:33.461Z,82.44
2022-12-18T17:00:04.775Z,81.99
2022-12-18T17:02:31.903Z,81.92
2022-12-18T17:04:58.686Z,82.40
2022-12-18T17:07:28.006Z,82.56
2022-12-18T17:09:54.562Z,82.64
2022-12-18T17:12:21.153Z,82.91
2022-12-18T17:14:47.969Z,83.33
2022-12-18T17:17:23.554Z,83.16
2022-12-18T17:19:51.941Z,82.94
2022-12-18T17:22:18.811Z,82.75
2022-12-18T17:24:46.560Z,83.61
2022-12-18T17:27:13.017Z,83.05
2022-12-18T17:29:45.302Z,83.30
2022-12-18T17:32:14.217Z,83.16
2022-12-18T17:34:40.787Z,82.87
2022-12-18T17:37:07.385Z,83.20
2022-12-18T17:39:33.832Z,82.60
2022-12-18T17:42:01.306Z,82.64
2022-12-18T17:44:27.737Z,83.17
2022-12-18T17:46:54.188Z,83.13
2022-12-18T17:49:21.514Z,83.28
2022-12-18T17:51:48.824Z,82.93
2022-12-18T17:54:15.252Z,83.32
2022-12-18T17:56:41.757Z,83.28
2022-12-18T17:59:08.407Z,83.05
2022-12-18T18:01:38.381Z,83.08
2022-12-18T18:04:07.526Z,83.33
2022-12-18T18:06:34.059Z,83.07
2022-12-18T18:09:02.977Z,83.24
2022-12-18T18:15:09.718Z,83.01
2022-12-18T18:17:44.276Z,83.32
2022-12-18T18:20:11.068Z,83.00
2022-12-18T18:22:37.638Z,83.08
2022-12-18T18:25:04.480Z,82.79
2022-12-18T18:27:36.832Z,83.34
2022-12-18T18:30:05.472Z,83.31
2022-12-18T18:32:31.824Z,82.98
2022-12-18T18:34:58.269Z,82.97
2022-12-18T18:37:24.804Z,82.80
2022-12-18T18:39:51.280Z,83.06
2022-12-18T18:42:17.686Z,83.00
2022-12-18T18:44:48.710Z,82.60
2022-12-18T18:47:15.426Z,82.97
2022-12-18T18:49:41.861Z,82.94
2022-12-18T18:52:08.331Z,83.08
2022-12-18T18:54:34.684Z,82.96
2022-12-18T18:57:19.902Z,83.24
2022-12-18T18:59:47.315Z,83.21
2022-12-18T19:02:15.194Z,82.78
2022-12-18T19:04:46.188Z,82.83
2022-12-18T19:07:15.019Z,83.17
2022-12-18T19:09:52.101Z,83.22
2022-12-18T19:12:37.123Z,82.76
2022-12-18T19:15:06.574Z,83.29
2022-12-18T19:17:33.905Z,82.60
2022-12-18T19:20:01.593Z,82.51
2022-12-18T19:22:28.044Z,82.83
2022-12-18T19:24:54.413Z,83.01
2022-12-18T19:27:20.858Z,82.34
2022-12-18T19:29:48.925Z,82.30
2022-12-18T19:32:15.604Z,82.35
2022-12-18T19:34:41.997Z,82.47
2022-12-18T19:37:09.713Z,82.22
2022-12-18T19:39:36.152Z,82.08
2022-12-18T19:42:02.527Z,82.24
2022-12-18T19:44:28.919Z,81.82
2022-12-18T19:46:55.377Z,81.34
2022-12-18T19:49:21.878Z,81.78
2022-12-18T19:51:50.255Z,81.59
2022-12-18T19:54:17.923Z,81.62
2022-12-18T19:56:44.946Z,81.67
2022-12-18T19:59:11.318Z,82.27
2022-12-18T20:01:37.908Z,83.33
2022-12-18T20:04:04.839Z,84.20
2022-12-18T20:06:45.401Z,84.70
2022-12-18T20:09:11.936Z,86.31
2022-12-18T20:11:41.989Z,86.69
2022-12-18T20:14:13.008Z,87.38
2022-12-18T20:16:39.541Z,88.70
2022-12-18T20:19:07.180Z,89.05
2022-12-18T20:21:34.392Z,89.67
2022-12-18T20:24:01.969Z,90.23
2022-12-18T20:26:28.617Z,90.28
2022-12-18T20:28:55.945Z,90.96
2022-12-18T20:31:23.835Z,91.71
2022-12-18T20:33:51.169Z,91.59
2022-12-18T20:36:23.614Z,92.02
2022-12-18T20:38:54.678Z,92.35
2022-12-18T20:41:24.322Z,92.62
2022-12-18T20:43:51.193Z,93.52
2022-12-18T20:46:17.966Z,93.82
2022-12-18T20:48:44.931Z,94.49
2022-12-18T20:51:13.873Z,94.54
2022-12-18T20:53:42.156Z,94.91
2022-12-18T20:56:21.334Z,95.56
2022-12-18T20:58:49.085Z,95.61
2022-12-18T21:01:19.746Z,96.13
2022-12-18T21:03:47.105Z,96.67
2022-12-18T21:06:15.441Z,96.53
2022-12-18T21:08:41.920Z,96.72
2022-12-18T21:11:49.948Z,97.08
2022-12-18T21:14:22.868Z,97.54
2022-12-18T21:16:51.866Z,96.99
2022-12-18T21:19:22.953Z,97.79
2022-12-18T21:21:49.924Z,98.52
2022-12-18T21:24:16.592Z,98.36
2022-12-18T21:26:45.807Z,98.66
2022-12-18T21:29:19.781Z,98.28
2022-12-18T21:31:47.470Z,99.09
2022-12-18T21:34:23.703Z,99.50
2022-12-18T21:36:50.086Z,99.54
2022-12-18T21:39:17.203Z,99.63
2022-12-18T21:42:02.363Z,99.88
2022-12-18T21:44:29.078Z,99.69
2022-12-18T21:47:00.568Z,100.00
2022-12-18T21:49:30.493Z,100.00
2022-12-18T21:51:58.860Z,100.00
2022-12-18T21:54:27.141Z,100.00
2022-12-18T21:56:56.527Z,100.00
2022-12-18T21:59:25.693Z,100.00
2022-12-18T22:01:53.731Z,100.00
2022-12-18T22:04:20.889Z,100.00
2022-12-18T22:06:48.523Z,100.00
2022-12-18T22:09:17.879Z,100.00
2022-12-18T22:11:45.121Z,100.00
2022-12-18T22:14:12.381Z,100.00
2022-12-18T22:16:38.725Z,100.00
2022-12-18T22:19:06.180Z,100.00
2022-12-18T22:21:35.529Z,100.00
2022-12-18T22:24:04.550Z,100.00
2022-12-18T22:26:39.325Z,100.00
2022-12-18T22:29:25.167Z,100.00
2022-12-18T22:31:52.708Z,100.00
2022-12-18T22:34:22.781Z,100.00
2022-12-18T22:36:49.601Z,100.00
2022-12-18T22:39:18.965Z,100.00
2022-12-18T22:41:45.913Z,100.00
2022-12-18T22:44:12.471Z,100.00
2022-12-18T22:46:50.076Z,100.00
2022-12-18T22:49:29.957Z,100.00
2022-12-18T22:51:56.482Z,100.00
2022-12-18T22:54:23.544Z,100.00
2022-12-18T22:56:50.036Z,100.00
2022-12-18T22:59:21.786Z,100.00
2022-12-18T23:01:49.687Z,100.00
2022-12-18T23:04:17.577Z,100.00
2022-12-18T23:06:45.034Z,100.00
2022-12-18T23:09:19.989Z,100.00
2022-12-18T23:11:47.810Z,100.00
2022-12-18T23:14:14.461Z,100.00
2022-12-18T23:16:40.996Z,100.00
2022-12-18T23:19:09.024Z,100.00
2022-12-18T23:21:36.414Z,100.00
2022-12-18T23:24:03.934Z,100.00
2022-12-18T23:26:30.708Z,100.00
2022-12-18T23:28:57.160Z,100.00
2022-12-18T23:31:26.717Z,100.00
2022-12-18T23:33:55.338Z,100.00
2022-12-18T23:36:22.770Z,100.00
2022-12-18T23:38:51.323Z,100.00
2022-12-18T23:41:20.047Z,100.00
2022-12-18T23:43:46.568Z,100.00
2022-12-18T23:46:32.613Z,100.00
2022-12-18T23:49:00.802Z,100.00
2022-12-18T23:51:28.240Z,100.00
2022-12-18T23:53:57.162Z,100.00
2022-12-18T23:56:24.113Z,100.00
2022-12-18T23:58:52.643Z,100.00
